EmailTwitter


Surface observations / France / LFMP (07747)

Regions: Quebec | Canada | USA | Europe | France | UK | Elsewhere
Station
Display
Info & Location for LFMP (07747) | Help decoding METAR

Weather Conditions observed on 2018/05/26 at 08:00 UTC at PERPIGNAN/RIVESA, FR (LFMP)

Sky conditions: variable clouds.

Temperature: 21.0 Celsius.

Dewpoint: 16.0 Celsius.

Relative Humidity: 73%

Humidex: 26.

Winds: Southeast at 13 km/h or 7 knots.

Mean Sea level Pressure: 101.60 kilopascals.

Horizontal visibility: 6.21 statute miles or 9.94 kilometers.

Coded METAR:

LFMP 260800Z AUTO 14007KT 110V180 9999 SCT100 SCT130 21/16 Q1016 TEMPO

10015G25KT=